Time;durP1;ratioP1;P1;durP2;ratioP2;P2;SDS_P1;SDS_P2;PMS_P1;PMS_P2;Temp;Humidity;BMP_temperature;BMP_pressure;BME280_temperature;BME280_humidity;BME280_pressure;Samples;Min_cycle;Max_cycle;Signal;HPM_P1;HPM_P2
2024/01/06 00:01:22;;;;;;;9.63;5.38;;;;;;;-1.94;97.27;100441.41;3705658;30;5003687;-84
2024/01/06 00:09:21;;;;;;;14.27;6.15;;;-0.20;99.90;;;-1.86;97.67;100456.03;5137815;27;20640;-83
2024/01/06 00:12:01;;;;;;;12.57;5.03;;;;;;;-1.87;97.14;100454.28;4945540;28;20134;-83
2024/01/06 00:18:43;;;;;;;10.10;4.50;;;;;;;-1.93;97.39;100449.13;4798349;29;20050;-84
2024/01/06 00:21:51;;;;;;;11.20;4.43;;;;;;;-1.97;97.37;100442.22;4785635;29;20047;-85
2024/01/06 00:24:52;;;;;;;10.90;5.13;;;-0.20;99.90;;;-1.92;97.52;100462.91;4778667;29;20066;-85
2024/01/06 00:35:14;;;;;;;12.40;4.15;;;-0.20;99.90;;;-1.97;97.08;100468.03;5018646;28;20190;-83
2024/01/06 00:38:34;;;;;;;;;;;;;;;;;;;;;
2024/01/06 00:41:03;;;;;;;11.30;5.00;;;;;;;-1.96;96.77;100472.34;4784662;29;20334;-82
2024/01/06 00:44:13;;;;;;;9.70;5.25;;;-0.20;99.90;;;-1.92;96.76;100491.28;4743526;29;20139;-84
2024/01/06 00:50:53;;;;;;;6.95;3.78;;;;;;;-1.87;96.02;100492.16;4578451;30;20606;-84
2024/01/06 00:57:40;;;;;;;13.35;4.38;;;-0.10;99.90;;;-1.88;95.96;100488.72;4524609;30;3184339;-82
2024/01/06 01:08:34;;;;;;;13.77;4.65;;;-0.10;99.90;;;-1.93;94.96;100498.16;4403095;31;1473636;-83
2024/01/06 01:11:00;;;;;;;8.85;4.18;;;-0.10;99.90;;;-1.94;95.05;100496.44;4381633;31;4981855;-84
2024/01/06 01:19:10;;;;;;;7.07;3.33;;;;;;;-1.84;94.79;100499.88;5029483;28;20728;-84
2024/01/06 01:22:54;;;;;;;8.30;4.30;;;-0.10;99.90;;;-1.81;95.18;100501.59;4985278;28;20050;-84
2024/01/06 01:29:22;;;;;;;11.95;4.20;;;;;;;-1.83;94.43;100496.47;4877645;29;20047;-83
2024/01/06 01:32:33;;;;;;;9.98;3.95;;;-0.10;99.90;;;-1.86;94.57;100501.59;4895569;28;20059;-84
2024/01/06 01:35:44;;;;;;;10.15;4.10;;;-0.10;99.90;;;-1.80;93.51;100503.34;4825311;29;20768;-85
2024/01/06 01:43:11;;;;;;;13.85;4.23;;;-0.10;99.90;;;-1.81;93.16;100509.34;4645986;29;5003649;-86
2024/01/06 01:46:34;;;;;;;;;;;;;;;;;;;;;
2024/01/06 01:52:14;;;;;;;9.07;3.90;;;-0.10;99.90;;;-1.85;93.01;100500.75;3933924;30;10538869;-84
2024/01/06 01:58:43;;;;;;;11.50;3.92;;;-0.10;99.90;;;-1.78;93.53;100519.69;5075182;27;20421;-84
2024/01/06 02:01:24;;;;;;;12.57;4.40;;;-0.10;99.90;;;-1.80;93.30;100522.25;4983523;28;20050;-86
2024/01/06 02:04:45;;;;;;;;;;;;;;;;;;;;;
2024/01/06 02:08:33;;;;;;;8.65;3.47;;;0.00;99.90;;;-1.83;92.57;100521.41;4916215;28;20111;-84
2024/01/06 02:14:53;;;;;;;9.43;3.70;;;;;;;-1.82;92.89;100530.84;4868727;29;20047;-84
2024/01/06 02:17:45;;;;;;;;;;;;;;;;;;;;;
2024/01/06 02:21:34;;;;;;;9.52;4.10;;;-0.10;99.90;;;-1.84;93.12;100520.53;4861958;29;20519;-84
2024/01/06 02:34:53;;;;;;;6.07;3.20;;;;;;;-1.91;93.18;100540.31;4703983;30;20048;-85
2024/01/06 03:03:13;;;;;;;8.40;3.95;;;-0.20;99.90;;;-1.99;94.70;100562.66;5025587;28;20424;-84
2024/01/06 03:06:20;;;;;;;11.07;4.28;;;;;;;-1.94;94.39;100571.28;5007171;28;20452;-84
2024/01/06 03:12:05;;;;;;;15.07;4.90;;;;;;;-1.94;95.05;100563.53;5022578;22;20034;-82
2024/01/06 03:14:43;;;;;;;13.77;3.92;;;;;;;-1.94;95.01;100570.44;4861381;28;20479;-83
2024/01/06 03:17:23;;;;;;;10.85;4.20;;;-0.10;99.90;;;-1.90;94.77;100578.19;4925835;28;20054;-83
2024/01/06 03:20:13;;;;;;;6.90;3.90;;;-0.10;99.90;;;-1.90;94.53;100572.13;4898322;28;20055;-84
2024/01/06 03:23:12;;;;;;;9.45;4.15;;;-0.10;99.90;;;-1.87;94.65;100570.44;4856598;28;20547;-84
2024/01/06 03:26:23;;;;;;;7.78;3.70;;;;;;;-1.88;94.69;100579.03;4822608;28;20433;-83
2024/01/06 03:28:52;;;;;;;8.55;4.03;;;;;;;-1.86;94.50;100579.91;4775069;29;20046;-84
2024/01/06 03:32:29;;;;;;;;;;;;;;;;;;;;;
2024/01/06 03:36:32;;;;;;;4.63;1.35;;;-0.10;99.90;;;-1.87;94.45;100588.50;4915220;28;20060;-84
2024/01/06 03:39:13;;;;;;;10.45;4.57;;;;;;;-1.89;94.81;100595.38;4759804;29;20065;-85
2024/01/06 03:41:53;;;;;;;11.65;3.90;;;-0.10;99.90;;;-1.87;95.06;100591.06;4759335;29;20054;-86
2024/01/06 03:45:34;;;;;;;13.07;4.90;;;-0.10;99.90;;;-1.83;94.70;100609.16;4735443;29;20049;-83
2024/01/06 03:48:03;;;;;;;9.05;4.25;;;;;;;-1.83;95.06;100599.69;4737063;29;20416;-84
2024/01/06 03:51:31;;;;;;;9.10;4.15;;;-0.10;99.90;;;-1.89;95.27;100604.84;4945314;23;20127;-84
2024/01/06 04:05:44;;;;;;;;;;;;;;;;;;;;;
2024/01/06 04:22:12;;;;;;;10.85;4.30;;;0.00;99.90;;;-1.87;96.19;100608.28;4886047;28;20039;-83
2024/01/06 04:25:21;;;;;;;11.23;3.97;;;;;;;-1.86;96.47;100600.56;4909057;28;20132;-84
2024/01/06 04:28:13;;;;;;;10.60;4.18;;;-0.10;99.90;;;-1.88;96.56;100610.00;4939893;28;20062;-84
2024/01/06 04:37:03;;;;;;;6.43;3.03;;;;;;;-1.90;95.77;100616.88;4853458;29;20049;-85
2024/01/06 04:39:43;;;;;;;7.93;2.92;;;;;;;-1.89;95.62;100623.75;4806033;29;20076;-82
2024/01/06 04:42:54;;;;;;;8.10;3.45;;;-0.10;99.90;;;-1.87;95.58;100614.31;4820147;29;20042;-85
2024/01/06 04:45:34;;;;;;;6.97;3.25;;;-0.10;99.90;;;-1.84;95.49;100628.06;4777558;29;20052;-85
2024/01/06 04:48:04;;;;;;;9.20;3.20;;;-0.10;99.90;;;-1.78;95.45;100628.09;4798017;29;20050;-85
2024/01/06 04:54:04;;;;;;;6.70;2.90;;;;;;;-1.87;95.65;100627.22;5000965;23;20045;-83
2024/01/06 04:57:33;;;;;;;7.03;2.80;;;-0.10;99.90;;;-1.89;94.29;100641.81;4915806;28;20070;-85
2024/01/06 05:00:36;;;;;;;6.90;2.70;;;;;;;-1.84;94.55;100646.16;4822420;29;20076;-84
2024/01/06 05:03:42;;;;;;;7.65;2.60;;;;;;;-1.81;94.33;100638.41;4786831;29;20049;-84
2024/01/06 05:06:43;;;;;;;4.07;1.80;;;-0.10;99.90;;;-1.87;94.37;100649.59;4829985;29;20039;-85
2024/01/06 05:17:14;;;;;;;;;;;;;;;;;;;;;
2024/01/06 05:20:04;;;;;;;5.43;2.72;;;;;;;-1.73;92.96;100662.50;4891517;28;20091;-83
2024/01/06 05:23:42;;;;;;;7.38;2.40;;;0.00;99.90;;;-1.75;92.77;100656.47;4840093;29;20901;-84
2024/01/06 05:26:23;;;;;;;6.03;1.98;;;;;;;-1.72;92.07;100669.41;4797466;29;20191;-85
2024/01/06 05:32:03;;;;;;;;;;;0.00;99.90;;;-1.70;91.83;100684.06;5061320;23;20071;-84
2024/01/06 05:35:13;;;;;;;4.40;1.80;;;0.00;99.90;;;-1.67;91.55;100689.22;5003578;28;20440;-84
2024/01/06 05:38:11;;;;;;;5.60;2.00;;;0.10;99.90;;;-1.62;91.76;100691.84;4938860;28;20042;-82
2024/01/06 05:45:02;;;;;;;4.45;2.03;;;;;;;-1.63;91.03;100695.25;4729547;29;20047;-83
2024/01/06 05:47:43;;;;;;;5.63;2.63;;;0.10;99.90;;;-1.59;89.97;100701.31;4689464;29;20045;-83
2024/01/06 05:51:30;;;;;;;6.38;1.92;;;0.10;99.90;;;-1.59;90.27;100702.16;4854100;23;20041;-84
2024/01/06 05:54:23;;;;;;;3.40;1.25;;;0.20;99.90;;;-1.54;90.18;100709.91;4931441;28;20065;-82
2024/01/06 05:57:32;;;;;;;4.38;1.50;;;;;;;-1.52;90.06;100727.13;4868125;29;20039;-82
2024/01/06 06:03:05;;;;;;;;;;;;;;;;;;;;;
2024/01/06 06:05:37;;;;;;;2.72;1.40;;;;;;;-1.54;88.79;100734.00;4827809;29;20043;-83
2024/01/06 06:08:32;;;;;;;4.68;1.10;;;0.30;99.90;;;-1.46;88.24;100752.13;4823921;29;20102;-83
2024/01/06 06:11:24;;;;;;;2.35;1.15;;;;;;;-1.52;88.02;100750.38;4926781;23;20322;-84
2024/01/06 06:13:53;;;;;;;1.83;0.90;;;;;;;-1.59;87.49;100752.94;4963448;28;20050;-82
2024/01/06 06:16:33;;;;;;;3.22;1.13;;;;;;;-1.57;86.33;100757.25;4995955;28;20116;-82
2024/01/06 06:19:13;;;;;;;1.60;0.57;;;;;;;-1.57;86.15;100757.25;5008161;28;20060;-83
2024/01/06 06:21:54;;;;;;;1.52;0.90;;;0.20;99.90;;;-1.58;85.89;100755.50;4948197;28;20077;-84
2024/01/06 06:25:03;;;;;;;2.00;1.20;;;;;;;-1.51;86.16;100762.44;4974574;28;20080;-83
2024/01/06 06:27:32;;;;;;;4.88;0.90;;;;;;;-1.50;85.85;100769.31;4952060;28;20034;-83
2024/01/06 06:32:34;;;;;;;2.38;1.10;;;0.20;99.90;;;-1.46;85.10;100791.72;4992829;28;20041;-83
2024/01/06 06:35:44;;;;;;;4.63;1.02;;;0.30;99.90;;;-1.44;85.50;100778.81;4900762;28;20049;-84
2024/01/06 06:39:14;;;;;;;1.27;0.82;;;;;;;-1.41;85.41;100793.47;4911065;28;20059;-84
2024/01/06 06:42:04;;;;;;;1.65;1.00;;;0.30;99.90;;;-1.41;85.40;100796.03;4819506;29;20052;-83
2024/01/06 06:45:14;;;;;;;;;;;;;;;;;;;;;
2024/01/06 06:47:44;;;;;;;4.72;1.20;;;;;;;-1.43;84.91;100806.34;4775670;29;20854;-84
2024/01/06 06:50:33;;;;;;;;;;;;;;;;;;;;;
2024/01/06 06:53:33;;;;;;;3.50;0.95;;;0.30;99.90;;;-1.38;84.56;100819.28;4799736;29;20052;-84
2024/01/06 06:56:03;;;;;;;1.60;0.95;;;;;;;-1.36;84.91;100827.91;4835486;29;20046;-83
2024/01/06 06:59:24;;;;;;;3.17;0.90;;;0.40;99.90;;;-1.38;84.92;100835.66;4781284;29;20065;-84
2024/01/06 07:01:53;;;;;;;0.93;0.68;;;;;;;-1.38;84.53;100830.50;4739570;30;21006;-83
2024/01/06 07:04:31;;;;;;;3.95;1.48;;;;;;;-1.33;84.35;100841.72;4719671;29;20971;-84
2024/01/06 07:07:13;;;;;;;1.48;0.90;;;0.40;99.90;;;-1.29;84.38;100845.19;4676172;30;20686;-84
2024/01/06 07:09:54;;;;;;;2.70;1.05;;;;;;;-1.28;84.14;100859.81;4767793;23;20056;-84
2024/01/06 07:12:43;;;;;;;1.77;0.80;;;;;;;-1.33;84.42;100844.28;5003337;28;20037;-84
2024/01/06 07:15:14;;;;;;;1.85;0.85;;;0.40;99.90;;;-1.40;83.91;100855.47;4890180;28;20046;-84
2024/01/06 07:18:12;;;;;;;2.70;1.10;;;0.40;99.90;;;-1.30;83.85;100846.03;4897770;28;20646;-85
2024/01/06 07:21:01;;;;;;;3.13;0.77;;;0.40;99.90;;;-1.31;83.92;100852.06;4839361;29;20448;-82
2024/01/06 07:24:14;;;;;;;0.75;0.28;;;0.40;99.90;;;-1.32;83.70;100860.66;4803609;29;20045;-84
2024/01/06 07:26:43;;;;;;;2.55;1.05;;;;;;;-1.33;84.38;100859.78;4755434;29;20062;-82
2024/01/06 07:29:24;;;;;;;2.95;1.02;;;0.50;99.90;;;-1.27;84.01;100866.72;4742229;23;20043;-83
2024/01/06 07:32:33;;;;;;;2.95;1.17;;;0.50;99.90;;;-1.22;84.04;100866.72;4935272;28;20042;-82
2024/01/06 07:35:14;;;;;;;4.72;0.90;;;0.50;99.90;;;-1.23;84.54;100871.03;4826342;28;20055;-83
2024/01/06 07:37:53;;;;;;;1.67;0.82;;;0.50;99.90;;;-1.26;83.78;100874.44;4876888;28;20042;-82
2024/01/06 07:40:32;;;;;;;1.63;0.93;;;;;;;-1.24;84.02;100877.03;4856224;29;20184;-82
2024/01/06 07:43:13;;;;;;;7.00;1.13;;;;;;;-1.19;83.75;100877.06;4794211;29;20043;-81
2024/01/06 07:45:51;;;;;;;3.05;0.98;;;;;;;-1.19;83.80;100877.91;4886527;29;20041;-82
2024/01/06 07:48:17;;;;;;;5.28;1.10;;;0.50;99.90;;;-1.17;84.35;100890.84;4843083;29;20044;-82
2024/01/06 07:50:50;;;;;;;2.20;0.82;;;;;;;-1.16;83.86;100888.28;4785119;29;20049;-83
2024/01/06 07:53:31;;;;;;;3.00;1.00;;;0.50;99.90;;;-1.19;83.63;100887.41;4812171;29;20044;-82
2024/01/06 07:56:14;;;;;;;2.65;0.98;;;;;;;-1.24;83.98;100890.81;4867133;28;20788;-82
2024/01/06 07:58:42;;;;;;;3.33;0.80;;;;;;;-1.18;82.94;100896.91;4815784;29;20101;-81
2024/01/06 08:01:35;;;;;;;2.38;0.90;;;0.50;99.90;;;-1.17;83.06;100904.63;4855408;29;20125;-83
2024/01/06 08:04:03;;;;;;;4.47;1.13;;;0.60;99.90;;;-1.15;82.96;100921.00;4756827;29;20046;-82
2024/01/06 08:06:41;;;;;;;3.75;0.75;;;;;;;-1.17;82.37;100902.03;4802181;29;20081;-82
2024/01/06 08:09:23;;;;;;;4.40;1.10;;;0.50;99.90;;;-1.19;82.68;100901.16;4825666;23;20041;-82
2024/01/06 08:12:30;;;;;;;3.22;1.15;;;0.60;99.90;;;-1.16;82.41;100914.13;4926079;28;20121;-82
2024/01/06 08:14:56;;;;;;;1.40;0.80;;;0.60;99.90;;;-1.17;82.31;100932.19;4929249;28;20033;-82
2024/01/06 08:20:14;;;;;;;9.35;1.10;;;;;;;-1.07;82.10;100955.50;4927340;28;20043;-82
2024/01/06 08:22:43;;;;;;;3.03;1.00;;;;;;;-1.09;81.68;100957.22;4959331;28;20053;-82
2024/01/06 08:25:33;;;;;;;3.97;1.20;;;;;;;-1.03;82.43;100946.06;4952842;28;20041;-83
2024/01/06 08:28:02;;;;;;;2.50;1.20;;;0.70;99.90;;;-1.06;82.14;100951.19;4905917;28;20042;-82
2024/01/06 08:31:24;;;;;;;;;;;;;;;;;;;;;
2024/01/06 08:34:02;;;;;;;2.40;1.17;;;0.70;99.90;;;-1.01;80.72;100965.03;4902725;28;20036;-86
2024/01/06 08:46:54;;;;;;;2.40;1.08;;;0.70;99.90;;;-0.94;80.15;101002.09;4868990;29;20113;-85
2024/01/06 08:50:04;;;;;;;5.13;1.50;;;0.80;99.90;;;-0.89;80.54;101005.56;4790765;29;20053;-83
2024/01/06 08:52:33;;;;;;;7.25;1.73;;;0.80;99.90;;;-0.86;80.81;101015.94;4765684;29;20521;-82
2024/01/06 08:55:22;;;;;;;5.03;2.10;;;;;;;-0.81;80.51;101021.13;4775556;29;20108;-81
2024/01/06 08:57:48;;;;;;;5.28;1.35;;;0.80;99.90;;;-0.76;80.98;101025.44;4792884;29;20464;-79
2024/01/06 09:00:15;;;;;;;2.25;1.23;;;0.90;99.90;;;-0.76;80.55;101033.19;4836797;28;20055;-78
2024/01/06 09:02:41;;;;;;;6.45;1.67;;;0.90;99.90;;;-0.72;80.42;101040.13;4864017;28;20041;-80
2024/01/06 09:05:08;;;;;;;5.32;1.85;;;0.90;99.90;;;-0.72;79.85;101055.63;4856835;28;20214;-80
2024/01/06 09:07:49;;;;;;;2.95;1.38;;;0.90;99.90;;;-0.76;79.16;101053.88;4861450;28;20048;-78
2024/01/06 09:10:24;;;;;;;4.18;1.50;;;0.90;99.90;;;-0.69;79.60;101054.78;4831115;29;20047;-80
2024/01/06 09:12:50;;;;;;;3.25;1.75;;;0.90;99.90;;;-0.70;78.80;101066.84;4855166;29;20104;-79
2024/01/06 09:15:16;;;;;;;4.95;1.55;;;0.90;99.90;;;-0.75;78.24;101063.41;4862657;28;20056;-80
2024/01/06 09:17:48;;;;;;;4.95;1.73;;;0.90;99.90;;;-0.72;78.62;101075.47;4930694;28;20062;-79
2024/01/06 09:20:14;;;;;;;6.03;1.60;;;0.90;99.90;;;-0.69;78.54;101076.34;4892648;28;20043;-79
2024/01/06 09:22:43;;;;;;;4.15;1.60;;;1.00;99.90;;;-0.72;78.19;101081.50;4939435;28;20128;-79
2024/01/06 09:25:15;;;;;;;8.45;1.75;;;0.90;99.90;;;-0.71;78.09;101084.97;4953672;28;20029;-80
2024/01/06 09:27:44;;;;;;;3.85;1.40;;;;;;;-0.77;77.53;101095.28;4960992;28;20140;-82
2024/01/06 09:30:22;;;;;;;5.20;1.50;;;;;;;-0.76;77.62;101104.75;4976993;28;20037;-83
2024/01/06 09:32:51;;;;;;;2.67;1.30;;;0.90;99.90;;;-0.69;77.10;101112.56;4950362;28;20536;-83
2024/01/06 09:36:13;;;;;;;7.40;1.70;;;1.00;99.90;;;-0.65;77.11;101109.16;4952799;28;20029;-83
2024/01/06 09:42:03;;;;;;;3.65;1.30;;;1.00;99.90;;;-0.58;76.86;101114.31;5064086;23;20048;-82
2024/01/06 09:44:33;;;;;;;3.70;1.38;;;;;;;-0.53;76.73;101120.41;4922430;28;20042;-83
2024/01/06 09:47:15;;;;;;;5.75;1.70;;;1.10;99.90;;;-0.46;77.39;101135.09;4920808;28;20113;-81
2024/01/06 09:50:15;;;;;;;;;;;;;;;;;;;;;
2024/01/06 09:52:54;;;;;;;7.60;1.70;;;1.10;99.90;;;-0.47;76.88;101130.78;4897220;28;21233;-83
2024/01/06 09:58:41;;;;;;;4.45;1.50;;;1.20;99.90;;;-0.44;76.37;101138.56;4859574;28;20039;-81
2024/01/06 10:01:33;;;;;;;5.65;1.65;;;1.20;99.90;;;-0.38;76.66;101148.94;4833202;29;20097;-82
2024/01/06 10:04:03;;;;;;;6.80;1.65;;;1.20;99.90;;;-0.37;76.61;101142.03;4847285;29;20039;-83
2024/01/06 10:06:53;;;;;;;4.82;1.35;;;;;;;-0.34;76.84;101144.66;4837129;29;20037;-82
2024/01/06 10:10:11;;;;;;;6.88;1.45;;;1.30;99.90;;;-0.30;77.09;101148.97;4838645;29;20108;-84
2024/01/06 10:13:01;;;;;;;2.60;1.40;;;1.30;99.90;;;-0.33;76.14;101136.88;4757019;29;20054;-84
2024/01/06 10:15:41;;;;;;;3.28;1.13;;;1.30;99.90;;;-0.38;76.35;101148.09;4765861;29;20123;-84
2024/01/06 10:18:38;;;;;;;4.40;1.42;;;1.30;99.90;;;-0.37;77.09;101145.47;4772077;29;20515;-84
2024/01/06 10:21:45;;;;;;;;;;;;;;;;;;;;;
2024/01/06 10:24:13;;;;;;;4.40;1.40;;;1.20;99.90;;;-0.38;75.88;101148.09;4757187;29;20133;-84
2024/01/06 10:26:51;;;;;;;7.20;1.40;;;1.20;99.90;;;-0.43;75.97;101151.50;4753015;29;20066;-84
2024/01/06 10:29:37;;;;;;;5.78;1.65;;;1.20;99.90;;;-0.43;75.99;101140.31;4713065;29;20048;-84
2024/01/06 10:32:04;;;;;;;6.20;2.00;;;1.30;99.90;;;-0.36;75.87;101147.22;4773386;29;20038;-82
2024/01/06 10:34:41;;;;;;;7.63;1.60;;;1.30;99.90;;;-0.26;75.75;101149.00;4791823;29;20408;-83
2024/01/06 10:37:17;;;;;;;6.20;1.60;;;1.30;99.90;;;-0.27;75.34;101151.59;4768972;29;20079;-83
2024/01/06 10:39:43;;;;;;;6.00;1.10;;;1.30;99.90;;;-0.25;76.27;101150.72;4806357;29;20125;-83
2024/01/06 10:42:22;;;;;;;6.38;1.60;;;1.40;99.90;;;-0.22;76.32;101153.34;4810116;29;20037;-83
2024/01/06 10:44:51;;;;;;;5.28;1.23;;;1.40;99.90;;;-0.24;76.24;101149.88;4840263;29;20028;-84
2024/01/06 10:47:31;;;;;;;4.10;1.40;;;1.40;99.90;;;-0.21;75.82;101161.97;4835192;29;20530;-83
2024/01/06 10:53:18;;;;;;;;;;;;;;;;;;;;;
2024/01/06 10:56:11;;;;;;;6.45;1.67;;;;;;;-0.14;76.22;101168.03;4838275;29;20100;-83
2024/01/06 10:59:12;;;;;;;3.45;1.70;;;1.50;99.90;;;-0.13;76.29;101169.75;4757268;29;20648;-84
2024/01/06 11:01:52;;;;;;;4.18;1.35;;;1.40;99.90;;;-0.08;75.85;101168.06;4779658;29;20423;-83
2024/01/06 11:04:32;;;;;;;2.58;1.08;;;1.50;99.90;;;-0.15;75.12;101161.09;4808420;29;20047;-82
2024/01/06 11:07:09;;;;;;;;;;;;;;;;;;;;;
2024/01/06 11:10:03;;;;;;;2.97;1.42;;;1.50;99.90;;;-0.13;75.19;101174.94;4825078;29;20057;-83
2024/01/06 11:12:35;;;;;;;5.68;1.60;;;;;;;-0.17;74.98;101175.75;4823344;29;20174;-84
2024/01/06 11:15:25;;;;;;;2.88;1.05;;;;;;;-0.22;75.48;101175.75;4832682;29;20440;-82
2024/01/06 11:17:58;;;;;;;2.38;1.15;;;1.40;99.90;;;-0.22;75.26;101175.75;4805775;29;20033;-82
2024/01/06 11:20:32;;;;;;;4.25;1.38;;;1.40;99.90;;;-0.21;74.69;101180.94;4804087;29;20041;-81
2024/01/06 11:23:23;;;;;;;4.70;1.63;;;1.40;99.90;;;-0.21;75.56;101183.53;4810000;29;20777;-81
2024/01/06 11:26:04;;;;;;;4.38;1.50;;;1.40;99.90;;;-0.19;75.11;101186.13;4764558;29;20041;-84
2024/01/06 11:31:45;;;;;;;4.97;1.65;;;1.50;99.90;;;-0.10;75.45;101172.38;4866789;28;20049;-82
2024/01/06 11:34:34;;;;;;;3.42;1.20;;;;;;;-0.16;75.11;101178.38;4825536;29;20036;-80
2024/01/06 11:37:05;;;;;;;1.35;0.95;;;1.50;99.90;;;-0.16;74.24;101175.78;4908911;28;20042;-83
2024/01/06 11:39:44;;;;;;;3.17;1.13;;;1.50;99.90;;;-0.18;75.21;101167.16;4925621;28;20515;-83
2024/01/06 11:45:20;;;;;;;3.58;1.05;;;;;;;-0.14;75.13;101170.63;4895681;29;20037;-80
2024/01/06 11:48:02;;;;;;;3.45;1.25;;;1.50;99.90;;;-0.11;74.90;101165.44;4872764;29;20083;-81
2024/01/06 11:50:38;;;;;;;2.17;1.17;;;1.50;99.90;;;-0.10;74.86;101154.25;4856333;29;20056;-82
2024/01/06 11:53:14;;;;;;;4.40;1.35;;;1.50;99.90;;;-0.12;74.93;101163.72;4885592;29;20043;-82
2024/01/06 11:55:43;;;;;;;1.80;1.13;;;1.50;99.90;;;-0.09;75.23;101167.19;4897220;29;20039;-81
2024/01/06 11:58:09;;;;;;;7.38;1.65;;;1.50;99.90;;;-0.08;75.62;101163.75;4868990;29;20051;-81
2024/01/06 12:00:42;;;;;;;6.30;1.60;;;1.60;99.90;;;-0.03;76.05;101172.38;4840550;29;20048;-83
2024/01/06 12:03:08;;;;;;;3.42;1.40;;;1.60;99.90;;;-0.04;75.23;101169.81;4887279;29;20039;-82
2024/01/06 12:05:35;;;;;;;3.85;1.52;;;;;;;-0.02;75.36;101174.13;4872586;29;20056;-82
2024/01/06 12:08:14;;;;;;;4.00;1.42;;;1.60;99.90;;;-0.02;74.90;101174.13;4864363;29;20055;-82
2024/01/06 12:10:42;;;;;;;5.43;2.28;;;1.60;99.90;;;-0.03;75.05;101184.47;4844189;28;20062;-81
2024/01/06 12:13:14;;;;;;;3.83;1.35;;;1.60;99.90;;;-0.05;74.38;101173.25;4874968;29;20588;-82
2024/01/06 12:15:56;;;;;;;5.82;1.50;;;1.50;99.90;;;-0.01;74.35;101177.56;4856399;29;20109;-82
2024/01/06 12:18:25;;;;;;;3.95;1.30;;;1.50;99.90;;;-0.11;74.61;101168.03;4847527;29;20062;-82
2024/01/06 12:21:02;;;;;;;6.85;2.35;;;1.50;99.90;;;-0.06;74.41;101174.13;4867556;29;20068;-81
2024/01/06 12:23:28;;;;;;;3.72;1.20;;;1.50;99.90;;;-0.13;74.38;101165.47;4941900;28;20030;-82
2024/01/06 12:25:55;;;;;;;4.07;1.83;;;1.50;99.90;;;-0.06;74.94;101176.69;4940193;28;20045;-82
2024/01/06 12:28:29;;;;;;;7.00;1.63;;;1.60;99.90;;;-0.06;75.10;101172.38;4938044;28;20038;-82
2024/01/06 12:30:55;;;;;;;2.95;1.10;;;1.50;99.90;;;-0.15;75.12;101179.22;4970021;28;20052;-82
2024/01/06 12:33:20;;;;;;;2.97;1.23;;;1.50;99.90;;;-0.18;74.73;101177.50;4970913;28;20046;-82
2024/01/06 12:35:46;;;;;;;7.32;1.10;;;1.50;99.90;;;-0.17;74.65;101175.75;4966832;28;20046;-82
2024/01/06 12:38:12;;;;;;;2.75;1.20;;;1.50;99.90;;;-0.20;75.07;101166.28;4983583;28;20037;-82
2024/01/06 12:40:46;;;;;;;7.57;0.90;;;;;;;-0.19;75.85;101169.72;4941841;28;20053;-82
2024/01/06 12:43:12;;;;;;;3.30;1.38;;;1.40;99.90;;;-0.24;75.79;101172.28;4966287;28;21088;-81
2024/01/06 12:45:37;;;;;;;9.60;1.90;;;1.50;99.90;;;-0.18;76.19;101174.06;4955327;28;20034;-81
2024/01/06 12:48:03;;;;;;;4.57;1.30;;;1.50;99.90;;;-0.21;75.84;101168.00;4935341;28;20040;-82
2024/01/06 12:50:35;;;;;;;3.17;1.35;;;;;;;-0.25;75.87;101186.97;4954007;28;20061;-81
2024/01/06 12:53:01;;;;;;;5.22;2.22;;;1.40;99.90;;;-0.21;75.67;101180.94;4969546;28;20035;-81
2024/01/06 12:55:27;;;;;;;5.80;1.50;;;1.40;99.90;;;-0.23;75.17;101195.59;4948651;28;20053;-81
2024/01/06 12:57:53;;;;;;;3.50;1.13;;;1.40;99.90;;;-0.23;75.25;101213.72;4979437;28;20121;-81
2024/01/06 13:00:19;;;;;;;2.97;1.17;;;1.40;99.90;;;-0.24;75.89;101214.59;4978438;23;20041;-81
2024/01/06 13:02:54;;;;;;;3.78;1.60;;;;;;;-0.21;75.44;101214.59;4935714;28;20453;-82
2024/01/06 13:05:19;;;;;;;5.90;0.93;;;1.40;99.90;;;-0.22;75.70;101210.28;4949945;28;20038;-82
2024/01/06 13:07:45;;;;;;;7.10;1.33;;;1.40;99.90;;;-0.19;75.64;101217.19;5003973;28;20123;-83
2024/01/06 13:10:11;;;;;;;5.28;1.33;;;1.40;99.90;;;-0.15;75.80;101212.88;4956303;28;20125;-81
2024/01/06 13:12:46;;;;;;;9.02;1.58;;;1.40;99.90;;;-0.13;76.08;101218.94;4954283;28;20056;-81
2024/01/06 13:15:12;;;;;;;1.92;1.10;;;1.40;99.90;;;-0.16;76.09;101209.44;4977733;28;20044;-82
2024/01/06 13:17:38;;;;;;;5.07;1.40;;;1.50;99.90;;;-0.18;76.37;101212.88;4940668;28;20073;-81
2024/01/06 13:20:16;;;;;;;3.65;1.25;;;1.40;99.90;;;-0.21;76.49;101214.59;4967238;28;20042;-80
2024/01/06 13:22:41;;;;;;;6.03;1.77;;;1.50;99.90;;;-0.18;76.16;101220.66;4937780;28;20125;-82
2024/01/06 13:25:08;;;;;;;5.18;1.13;;;1.40;99.90;;;-0.22;76.27;101210.28;4931933;28;20419;-82
2024/01/06 13:27:41;;;;;;;3.33;0.88;;;1.40;99.90;;;-0.23;76.27;101224.06;4956577;28;20030;-83
2024/01/06 13:30:08;;;;;;;7.47;1.50;;;1.40;99.90;;;-0.22;76.45;101228.41;4937534;28;20453;-82
2024/01/06 13:32:34;;;;;;;4.07;1.52;;;1.40;99.90;;;-0.26;76.17;101231.81;4952190;28;20049;-82
2024/01/06 13:35:04;;;;;;;7.85;4.72;;;1.40;99.90;;;-0.23;76.51;101231.84;4930214;28;20612;-82
2024/01/06 13:37:33;;;;;;;4.78;1.45;;;1.40;99.90;;;-0.22;76.31;101243.03;4942462;28;21466;-82
2024/01/06 13:39:59;;;;;;;7.75;1.20;;;1.40;99.90;;;-0.27;76.03;101244.75;4962810;22;20046;-82
2024/01/06 13:42:25;;;;;;;5.32;1.33;;;1.40;99.90;;;-0.29;76.12;101239.56;4946161;28;20072;-82
2024/01/06 13:44:50;;;;;;;2.92;1.35;;;1.30;99.90;;;-0.30;76.12;101252.47;4961601;28;20057;-82
2024/01/06 13:47:16;;;;;;;4.82;1.30;;;1.40;99.90;;;-0.28;75.89;101251.66;4970149;28;20030;-82
2024/01/06 13:49:47;;;;;;;3.38;1.10;;;1.40;99.90;;;-0.32;75.93;101247.31;4968621;28;20030;-82
2024/01/06 13:52:13;;;;;;;3.38;1.25;;;1.30;99.90;;;-0.35;76.55;101247.28;4964010;28;20106;-81
2024/01/06 13:54:39;;;;;;;3.80;1.40;;;1.30;99.90;;;-0.39;76.32;101239.47;4914757;28;20047;-83
2024/01/06 13:57:05;;;;;;;5.90;1.10;;;1.20;99.90;;;-0.48;75.95;101242.88;4940980;28;21483;-81
2024/01/06 13:59:31;;;;;;;3.45;1.20;;;1.20;99.90;;;-0.45;76.40;101241.19;4911972;28;20059;-81
2024/01/06 14:02:06;;;;;;;4.10;1.20;;;1.20;99.90;;;-0.44;76.21;101239.47;4956437;28;20046;-80
2024/01/06 14:04:32;;;;;;;3.63;1.30;;;1.10;99.90;;;-0.51;76.49;101245.44;4935868;28;20049;-82
2024/01/06 14:06:58;;;;;;;7.32;2.20;;;;;;;-0.48;76.37;101255.81;4972513;28;20027;-81
2024/01/06 14:09:24;;;;;;;4.68;1.67;;;;;;;-0.48;76.93;101274.78;4942845;28;20065;-83
2024/01/06 14:11:59;;;;;;;7.88;1.50;;;1.20;99.90;;;-0.52;76.34;101270.47;4926974;28;20041;-82
2024/01/06 14:14:26;;;;;;;2.17;1.00;;;1.10;99.90;;;-0.52;76.45;101274.75;4923150;28;20047;-80
2024/01/06 14:16:52;;;;;;;3.70;0.85;;;1.10;99.90;;;-0.62;76.16;101276.41;4969435;28;20164;-82
2024/01/06 14:19:27;;;;;;;2.45;1.15;;;1.10;99.90;;;-0.59;76.88;101279.00;4945959;28;20511;-80
2024/01/06 14:21:52;;;;;;;5.60;1.17;;;1.10;99.90;;;-0.57;76.54;101284.22;4946722;28;20091;-82
2024/01/06 14:24:23;;;;;;;4.15;1.35;;;1.10;99.90;;;-0.63;76.71;101288.47;5005456;28;20046;-81
2024/01/06 14:26:55;;;;;;;3.60;1.20;;;1.10;99.90;;;-0.61;76.04;101296.25;4904867;28;20671;-82
2024/01/06 14:29:21;;;;;;;3.58;1.33;;;1.10;99.90;;;-0.65;75.93;101305.72;4922890;28;20034;-81
2024/01/06 14:31:48;;;;;;;4.20;1.52;;;1.10;99.90;;;-0.58;76.50;101313.50;4915467;28;20034;-82
2024/01/06 14:34:19;;;;;;;8.27;1.88;;;1.10;99.90;;;-0.54;76.55;101312.66;4966094;28;20041;-81
2024/01/06 14:36:47;;;;;;;4.32;1.40;;;1.10;99.90;;;-0.51;76.88;101321.34;4941781;28;20060;-81
2024/01/06 14:39:17;;;;;;;5.13;1.30;;;1.10;99.90;;;-0.53;76.98;101314.44;4939207;28;20051;-82
2024/01/06 14:41:43;;;;;;;4.05;0.93;;;1.10;99.90;;;-0.61;76.96;101311.75;4942212;28;20034;-80
2024/01/06 14:44:09;;;;;;;2.92;1.05;;;1.10;99.90;;;-0.60;76.16;101318.69;4902477;28;20042;-80
2024/01/06 14:46:41;;;;;;;3.97;1.25;;;1.10;99.90;;;-0.62;76.58;101318.66;4951767;28;20054;-81
2024/01/06 14:49:08;;;;;;;3.53;1.00;;;1.00;99.90;;;-0.65;76.37;101323.81;4918945;28;20555;-82
2024/01/06 14:51:34;;;;;;;5.40;2.30;;;1.00;99.90;;;-0.63;76.66;101328.97;4949038;28;20051;-81
2024/01/06 14:54:00;;;;;;;5.43;1.10;;;1.00;99.90;;;-0.69;76.69;101327.22;4933057;28;20164;-82
2024/01/06 14:56:26;;;;;;;7.25;1.60;;;1.00;99.90;;;-0.68;76.30;101341.00;4952932;28;20421;-80
2024/01/06 14:58:59;;;;;;;9.32;1.65;;;1.00;99.90;;;-0.67;76.63;101338.44;4890640;28;20031;-80
2024/01/06 15:01:24;;;;;;;9.23;1.50;;;1.00;99.90;;;-0.69;76.39;101334.97;4918439;28;20048;-81